Terminal Aerodrome Forecast
Issued by NWS

Home | Current Version | Previous Version | Text Only | Print | Product List | Glossary On
Versions: 1 2 3 4 5 6 7 8 9 10 11 12 13 14 15 16
000
FTUS45 KTFX 251745
TAFBZN
TAF
KBZN 251745Z 2518/2618 VRB06KT P6SM -RA BKN015 OVC025
      TEMPO 2518/2521 4SM -RASN OVC010
     FM252200 10008KT P6SM VCSH SCT040 BKN070
     FM260900 32007KT 4SM -SN BKN025
     FM261600 34006KT 5SM -RA OVC015=

USA.gov is the U.S. government's official web portal to all federal, state and local government web resources and services.